createdAt,value
2023-09-02T01:32:06.835Z,18.55
2023-09-02T01:33:36.023Z,18.43
2023-09-02T01:39:47.364Z,21.85
2023-09-02T01:42:42.466Z,17.70
2023-09-02T01:48:52.070Z,21.13
2023-09-02T01:52:57.421Z,18.95
2023-09-02T01:59:09.420Z,23.07
2023-09-02T02:08:47.370Z,21.55
2023-09-02T02:11:16.331Z,24.20
2023-09-02T02:14:07.120Z,20.50
2023-09-02T02:16:55.323Z,26.13
2023-09-02T02:22:56.384Z,26.10
2023-09-02T02:26:42.004Z,26.38
2023-09-02T02:29:39.474Z,35.63
2023-09-02T02:38:17.772Z,14.68
2023-09-02T02:53:49.887Z,19.45
2023-09-02T02:57:11.861Z,19.33
2023-09-02T02:59:04.648Z,26.33
2023-09-02T03:02:06.290Z,25.42
2023-09-02T03:11:19.139Z,29.05
2023-09-02T03:18:34.701Z,25.48
2023-09-02T03:24:14.033Z,29.52
2023-09-02T03:27:05.559Z,31.92
2023-09-02T03:29:26.375Z,26.80
2023-09-02T03:31:29.800Z,30.30
2023-09-02T03:45:06.822Z,23.13
2023-09-02T04:05:55.043Z,24.67
2023-09-02T06:08:15.582Z,28.27
2023-09-02T06:10:42.392Z,26.02
2023-09-02T06:13:56.809Z,23.40
2023-09-02T06:40:16.451Z,16.80
2023-09-02T06:42:17.261Z,15.33
2023-09-02T06:56:15.755Z,15.55
2023-09-02T07:00:03.616Z,15.83
2023-09-02T07:02:55.655Z,20.35
2023-09-02T07:05:10.793Z,19.40
2023-09-02T07:14:01.950Z,17.67
2023-09-02T07:16:26.257Z,15.02
2023-09-02T07:18:53.016Z,14.93
2023-09-02T07:21:23.924Z,16.13
2023-09-02T07:23:56.361Z,20.70
2023-09-02T07:26:24.895Z,15.57
2023-09-02T07:28:55.996Z,14.18
2023-09-02T07:31:22.762Z,12.10
2023-09-02T07:33:49.468Z,15.95
2023-09-02T07:36:18.574Z,14.90
2023-09-02T07:38:47.673Z,15.37
2023-09-02T07:41:17.781Z,13.63
2023-09-02T07:43:47.787Z,18.70
2023-09-02T07:46:17.422Z,15.77
2023-09-02T07:49:09.679Z,44.65
2023-09-02T07:51:36.549Z,16.17
2023-09-02T08:16:44.692Z,21.45
2023-09-02T08:23:14.032Z,19.00
2023-09-02T08:26:25.103Z,25.15
2023-09-02T08:33:00.307Z,18.73
2023-09-02T08:35:26.983Z,15.93
2023-09-02T08:38:11.310Z,15.97
2023-09-02T08:40:44.798Z,18.23
2023-09-02T08:44:27.129Z,18.10
2023-09-02T08:50:56.029Z,16.38
2023-09-02T09:01:24.684Z,19.83
2023-09-02T09:11:57.846Z,20.83
2023-09-02T09:14:40.875Z,21.88
2023-09-02T09:44:33.053Z,44.35
2023-09-02T10:02:23.335Z,24.60
2023-09-02T10:05:29.145Z,25.53
2023-09-02T10:11:37.309Z,21.17
2023-09-02T10:14:32.548Z,24.65
2023-09-02T10:20:25.014Z,29.60
2023-09-02T10:22:57.175Z,26.58
2023-09-02T10:25:28.705Z,25.45
2023-09-02T10:28:29.316Z,31.52
2023-09-02T10:30:59.219Z,23.85
2023-09-02T10:34:07.877Z,30.80
2023-09-02T10:36:40.169Z,21.85
2023-09-02T10:39:12.036Z,18.42
2023-09-02T10:41:39.693Z,28.40
2023-09-02T10:44:10.106Z,20.42
2023-09-02T10:46:37.098Z,19.20
2023-09-02T10:49:05.313Z,35.78
2023-09-02T10:51:35.850Z,20.77
2023-09-02T10:54:03.448Z,22.48
2023-09-02T10:56:48.554Z,25.92
2023-09-02T10:59:53.858Z,30.90
2023-09-02T11:06:31.897Z,25.02
2023-09-02T11:09:22.593Z,23.10
2023-09-02T11:12:37.674Z,30.33
2023-09-02T11:15:40.262Z,28.60
2023-09-02T11:19:07.926Z,22.80
2023-09-02T11:44:08.805Z,18.55
2023-09-02T11:53:19.113Z,23.80
2023-09-02T11:55:45.891Z,22.02
2023-09-02T12:01:30.087Z,23.73
2023-09-02T12:03:58.476Z,21.80
2023-09-02T12:06:30.004Z,21.85
2023-09-02T12:08:57.599Z,20.65
2023-09-02T12:11:24.363Z,20.20
2023-09-02T12:13:54.961Z,21.05
2023-09-02T12:16:23.329Z,21.03
2023-09-02T12:18:52.642Z,17.20
2023-09-02T12:21:20.635Z,18.08
2023-09-02T12:23:51.378Z,17.95
2023-09-02T12:26:22.868Z,19.35
2023-09-02T12:28:50.422Z,20.27
2023-09-02T12:31:18.370Z,19.17
2023-09-02T12:33:57.480Z,20.80
2023-09-02T12:36:51.496Z,17.40
2023-09-02T12:43:56.448Z,16.83
2023-09-02T12:49:40.236Z,18.25
2023-09-02T12:53:39.924Z,21.65
2023-09-02T12:56:09.597Z,19.52
2023-09-02T12:59:05.837Z,19.27
2023-09-02T13:01:43.339Z,18.42
2023-09-02T13:10:55.922Z,16.63
2023-09-02T13:13:24.824Z,19.30
2023-09-02T13:15:52.173Z,15.57
2023-09-02T13:18:19.066Z,15.55
2023-09-02T13:21:00.931Z,17.08
2023-09-02T13:24:12.131Z,17.70
2023-09-02T13:31:01.322Z,15.63
2023-09-02T13:33:32.746Z,16.35
2023-09-02T13:36:00.400Z,14.55
2023-09-02T13:39:07.598Z,15.18
2023-09-02T13:42:28.557Z,18.27
2023-09-02T13:48:10.135Z,15.13
2023-09-02T13:50:37.526Z,15.05
2023-09-02T13:53:06.510Z,15.38
2023-09-02T13:56:09.501Z,13.97
2023-09-02T13:59:03.456Z,14.93
2023-09-02T14:07:50.771Z,15.40
2023-09-02T14:10:57.233Z,16.83
2023-09-02T14:13:23.909Z,14.57
2023-09-02T14:15:53.616Z,14.82
2023-09-02T14:21:04.088Z,14.10
2023-09-02T14:23:34.135Z,13.53
2023-09-02T14:29:43.715Z,10.82
2023-09-02T14:32:33.757Z,11.90
2023-09-02T14:35:04.601Z,10.65
2023-09-02T14:37:33.272Z,11.43
2023-09-02T14:40:00.197Z,9.93
2023-09-02T14:46:16.004Z,9.63
2023-09-02T14:48:43.256Z,12.27
2023-09-02T14:51:10.152Z,13.63
2023-09-02T14:56:43.817Z,14.07
2023-09-02T14:59:14.967Z,10.57
2023-09-02T15:01:43.796Z,7.82
2023-09-02T15:04:11.447Z,11.20
2023-09-02T15:06:43.367Z,11.95
2023-09-02T15:09:10.812Z,9.10
2023-09-02T15:11:41.568Z,7.03
2023-09-02T15:14:09.187Z,8.80
2023-09-02T15:19:43.891Z,6.07
2023-09-02T15:22:13.243Z,6.78
2023-09-02T15:24:39.940Z,7.90
2023-09-02T15:27:06.687Z,5.65
2023-09-02T15:29:38.310Z,7.23
2023-09-02T15:32:05.173Z,8.48
2023-09-02T15:34:32.200Z,5.72
2023-09-02T15:36:59.237Z,5.10
2023-09-02T15:39:27.859Z,6.05
2023-09-02T15:44:34.935Z,6.43
2023-09-02T15:47:10.847Z,5.90
2023-09-02T15:49:37.473Z,5.22
2023-09-02T15:52:06.961Z,6.28
2023-09-02T15:54:35.810Z,5.47
2023-09-02T15:57:27.487Z,5.00
2023-09-02T15:59:54.362Z,5.68
2023-09-02T16:02:21.235Z,5.38
2023-09-02T16:04:48.993Z,5.00
2023-09-02T16:10:03.118Z,5.63
2023-09-02T16:12:29.794Z,5.15
2023-09-02T16:15:01.211Z,3.65
2023-09-02T16:17:29.867Z,4.18
2023-09-02T16:19:56.667Z,4.97
2023-09-02T16:22:23.741Z,4.10
2023-09-02T16:24:52.562Z,3.10
2023-09-02T16:27:19.303Z,3.97
2023-09-02T16:29:48.215Z,3.95
2023-09-02T16:32:15.856Z,5.30
2023-09-02T16:34:46.295Z,3.92
2023-09-02T16:37:16.349Z,5.10
2023-09-02T16:39:44.267Z,4.65
2023-09-02T16:42:13.572Z,4.80
2023-09-02T16:44:40.412Z,4.17
2023-09-02T16:47:07.124Z,3.88
2023-09-02T16:49:37.504Z,5.93
2023-09-02T16:52:07.185Z,4.93
2023-09-02T16:54:34.018Z,4.70
2023-09-02T16:57:01.312Z,5.53
2023-09-02T16:59:29.789Z,4.97
2023-09-02T17:01:57.286Z,6.40
2023-09-02T17:04:24.590Z,8.70
2023-09-02T17:06:51.602Z,6.50
2023-09-02T17:09:20.799Z,6.07
2023-09-02T17:11:48.535Z,6.25
2023-09-02T17:14:15.573Z,9.13
2023-09-02T17:16:47.129Z,9.20
2023-09-02T17:19:19.117Z,9.13
2023-09-02T17:21:46.961Z,14.03
2023-09-02T17:24:18.941Z,8.10
2023-09-02T17:26:45.923Z,6.47
2023-09-02T17:29:15.113Z,6.85
2023-09-02T17:31:41.970Z,7.35
2023-09-02T17:34:08.608Z,5.67
2023-09-02T17:36:36.375Z,6.40
2023-09-02T17:39:04.324Z,7.10
2023-09-02T17:41:30.970Z,7.57
2023-09-02T17:43:57.696Z,8.55
2023-09-02T17:46:24.362Z,10.63
2023-09-02T17:48:51.177Z,12.00
2023-09-02T17:51:17.949Z,13.05
2023-09-02T17:53:44.661Z,8.93
2023-09-02T17:56:12.331Z,16.95
2023-09-02T17:58:38.991Z,9.10
2023-09-02T18:01:05.696Z,28.45
2023-09-02T18:03:32.494Z,10.18
2023-09-02T18:06:02.729Z,5.25
2023-09-02T18:08:42.618Z,5.68
2023-09-02T18:11:15.941Z,5.33
2023-09-02T18:13:42.540Z,5.38
2023-09-02T18:16:09.242Z,4.25
2023-09-02T18:18:36.100Z,4.18
2023-09-02T18:21:02.734Z,6.65
2023-09-02T18:23:29.394Z,3.60
2023-09-02T18:25:56.163Z,4.75
2023-09-02T18:28:22.929Z,4.43
2023-09-02T18:33:53.645Z,3.45
2023-09-02T18:36:20.480Z,2.47
2023-09-02T18:38:48.172Z,3.42
2023-09-02T18:41:15.037Z,4.65
2023-09-02T18:43:41.655Z,5.35
2023-09-02T18:46:08.239Z,4.60
2023-09-02T18:48:34.876Z,5.23
2023-09-02T18:51:01.689Z,3.38
2023-09-02T18:53:28.342Z,3.65
2023-09-02T18:55:56.046Z,3.78
2023-09-02T18:58:22.749Z,4.43
2023-09-02T19:00:49.522Z,3.33
2023-09-02T19:03:16.169Z,4.70
2023-09-02T19:05:42.871Z,3.95
2023-09-02T19:08:09.526Z,5.30
2023-09-02T19:10:36.150Z,6.22
2023-09-02T19:13:02.974Z,4.27
2023-09-02T19:15:29.612Z,4.03
2023-09-02T19:17:56.290Z,3.50
2023-09-02T19:20:22.917Z,3.50
2023-09-02T19:22:49.505Z,4.28
2023-09-02T19:25:18.322Z,4.10
2023-09-02T19:27:46.000Z,4.13
2023-09-02T19:30:14.337Z,4.38
2023-09-02T19:32:41.383Z,10.23
2023-09-02T19:35:10.614Z,6.53
2023-09-02T19:37:45.726Z,4.07
2023-09-02T19:40:14.167Z,4.75
2023-09-02T19:42:41.996Z,4.85
2023-09-02T19:45:08.806Z,4.75
2023-09-02T19:47:35.633Z,4.28
2023-09-02T19:50:03.071Z,4.73
2023-09-02T19:52:31.042Z,7.13
2023-09-02T19:54:58.639Z,5.07
2023-09-02T19:57:25.670Z,7.28
2023-09-02T19:59:52.454Z,6.47
2023-09-02T20:02:19.856Z,6.73
2023-09-02T20:04:46.782Z,7.97
2023-09-02T20:07:14.517Z,5.60
2023-09-02T20:09:42.226Z,5.32
2023-09-02T20:12:08.846Z,6.97
2023-09-02T20:14:35.541Z,5.77
2023-09-02T20:17:02.507Z,7.07
2023-09-02T20:19:29.209Z,5.75
2023-09-02T20:21:55.912Z,5.72
2023-09-02T20:24:29.489Z,6.60
2023-09-02T20:26:56.687Z,5.90
2023-09-02T20:29:24.092Z,5.78
2023-09-02T20:31:51.868Z,7.43
2023-09-02T20:34:20.638Z,6.03
2023-09-02T20:36:47.834Z,6.28
2023-09-02T20:39:15.557Z,6.90
2023-09-02T20:41:42.219Z,7.88
2023-09-02T20:44:11.013Z,6.78
2023-09-02T20:46:39.293Z,5.55
2023-09-02T20:49:06.072Z,6.40
2023-09-02T20:51:33.130Z,8.60
2023-09-02T20:54:01.094Z,6.93
2023-09-02T20:56:30.471Z,6.50
2023-09-02T20:58:57.147Z,6.60
2023-09-02T21:01:23.767Z,8.90
2023-09-02T21:03:50.630Z,7.20
2023-09-02T21:06:17.242Z,7.55
2023-09-02T21:08:43.838Z,5.82
2023-09-02T21:11:13.507Z,7.10
2023-09-02T21:13:42.428Z,6.85
2023-09-02T21:16:14.137Z,6.80
2023-09-02T21:18:40.950Z,6.03
2023-09-02T21:21:07.785Z,7.38
2023-09-02T21:23:34.992Z,9.07
2023-09-02T21:26:10.237Z,9.35
2023-09-02T21:28:39.482Z,6.97
2023-09-02T21:31:07.175Z,6.75
2023-09-02T21:33:34.335Z,7.68
2023-09-02T21:36:01.423Z,8.90
2023-09-02T21:38:28.213Z,7.95
2023-09-02T21:41:05.554Z,6.63
2023-09-02T21:43:33.418Z,7.28
2023-09-02T21:46:03.517Z,8.43
2023-09-02T21:48:30.208Z,5.95
2023-09-02T21:51:07.381Z,6.95
2023-09-02T21:53:35.045Z,6.73
2023-09-02T21:56:01.921Z,6.43
2023-09-02T21:58:28.927Z,5.93
2023-09-02T22:01:03.722Z,8.15
2023-09-02T22:03:31.012Z,9.15
2023-09-02T22:06:07.050Z,7.93
2023-09-02T22:08:33.811Z,8.85
2023-09-02T22:11:00.735Z,8.20
2023-09-02T22:13:28.905Z,8.45
2023-09-02T22:15:56.883Z,8.07
2023-09-02T22:18:25.481Z,6.80
2023-09-02T22:20:53.734Z,6.65
2023-09-02T22:23:22.293Z,7.75
2023-09-02T22:25:50.643Z,6.07
2023-09-02T22:28:18.654Z,7.50
2023-09-02T22:30:45.465Z,5.93
2023-09-02T22:33:13.394Z,7.25
2023-09-02T22:35:40.125Z,6.93
2023-09-02T22:38:10.012Z,5.53
2023-09-02T22:40:36.983Z,5.78
2023-09-02T22:43:03.731Z,6.33
2023-09-02T22:45:30.314Z,6.40
2023-09-02T22:47:59.671Z,8.00
2023-09-02T22:50:26.586Z,6.57
2023-09-02T22:52:53.239Z,5.82
2023-09-02T22:55:21.246Z,7.40
2023-09-02T22:57:49.001Z,4.88
2023-09-02T23:00:15.881Z,6.13
2023-09-02T23:02:42.584Z,5.07
2023-09-02T23:05:09.988Z,5.35
2023-09-02T23:07:36.553Z,5.47
2023-09-02T23:10:03.203Z,7.00
2023-09-02T23:12:29.782Z,4.97
2023-09-02T23:14:56.314Z,5.32
2023-09-02T23:17:22.927Z,5.93
2023-09-02T23:19:55.797Z,7.10
2023-09-02T23:22:23.526Z,5.80
2023-09-02T23:24:50.341Z,6.95
2023-09-02T23:27:16.961Z,5.43
2023-09-02T23:29:43.691Z,4.72
2023-09-02T23:32:11.517Z,6.30
2023-09-02T23:34:38.322Z,8.60
2023-09-02T23:37:05.205Z,5.32
2023-09-02T23:39:31.853Z,5.35
2023-09-02T23:41:58.424Z,4.95
2023-09-02T23:44:24.989Z,6.63
2023-09-02T23:46:51.538Z,5.63
2023-09-02T23:49:18.068Z,5.03
2023-09-02T23:51:44.697Z,5.68
2023-09-02T23:54:11.246Z,5.40
2023-09-02T23:56:38.339Z,5.10
2023-09-02T23:59:04.913Z,5.35
